Time;durP1;ratioP1;P1;durP2;ratioP2;P2;SDS_P1;SDS_P2;PMS_P1;PMS_P2;Temp;Humidity;BMP_temperature;BMP_pressure;BME280_temperature;BME280_humidity;BME280_pressure;Samples;Min_cycle;Max_cycle;Signal;HPM_P1;HPM_P2
2022/03/22 00:00:42;;;;;;;;;;;;;;;5.95;33.94;101139.13;3139403;28;19924;-71
2022/03/22 00:02:14;;;;;;;;;;;;;;;5.95;33.92;101134.81;3149114;28;19923;-72
2022/03/22 00:03:46;;;;;;;;;;;;;;;5.97;33.78;101132.19;3137227;28;20326;-71
2022/03/22 00:05:16;;;;;;;;;;;;;;;5.97;33.85;101133.03;3146259;28;19931;-71
2022/03/22 00:06:48;;;;;;;;;;;;;;;5.99;33.89;101131.31;3146058;28;19943;-71
2022/03/22 00:08:20;;;;;;;;;;;;;;;5.99;33.83;101131.31;3145851;28;19924;-71
2022/03/22 00:09:51;;;;;;;;;;;;;;;6.01;33.67;101128.75;3146313;28;19928;-70
2022/03/22 00:11:23;;;;;;;;;;;;;;;6.03;33.78;101132.16;3145612;28;19931;-71
2022/03/22 00:12:55;;;;;;;;;;;;;;;6.04;33.61;101128.72;3143537;28;20011;-72
2022/03/22 00:14:26;;;;;;;;;;;;;;;6.04;33.70;101129.56;3136747;28;19997;-71
2022/03/22 00:15:59;;;;;;;;;;;;;;;6.05;33.51;101123.53;3143633;28;19924;-71
2022/03/22 00:17:30;;;;;;;;;;;;;;;6.06;33.47;101126.97;3146116;28;19924;-71
2022/03/22 00:19:01;;;;;;;;;;;;;;;6.06;33.51;101121.78;3146540;28;20089;-71
2022/03/22 00:20:35;;;;;;;;;;;;;;;6.06;33.54;101119.22;3148525;28;19973;-71
2022/03/22 00:22:06;;;;;;;;;;;;;;;6.07;33.46;101113.19;3146584;28;19930;-71
2022/03/22 00:23:38;;;;;;;;;;;;;;;6.07;33.41;101111.47;3146890;28;20250;-67
2022/03/22 00:25:10;;;;;;;;;;;;;;;6.08;33.36;101105.41;3141174;28;19985;-71
2022/03/22 00:26:41;;;;;;;;;;;;;;;6.10;33.33;101110.59;3146272;28;19920;-72
2022/03/22 00:28:13;;;;;;;;;;;;;;;6.10;33.42;101106.25;3145827;28;20010;-72
2022/03/22 00:29:45;;;;;;;;;;;;;;;6.11;33.24;101107.13;3148468;28;19930;-72
2022/03/22 00:31:18;;;;;;;;;;;;;;;6.11;33.27;101107.13;3136487;28;19967;-72
2022/03/22 00:32:52;;;;;;;;;;;;;;;6.11;33.19;101110.56;3146275;28;19968;-72
2022/03/22 00:34:24;;;;;;;;;;;;;;;6.11;33.24;101095.03;3145949;28;19993;-72
2022/03/22 00:35:55;;;;;;;;;;;;;;;6.13;33.16;101100.22;3142915;28;20002;-73
2022/03/22 00:37:27;;;;;;;;;;;;;;;6.14;33.14;101101.94;3145630;28;19924;-73
2022/03/22 00:38:59;;;;;;;;;;;;;;;6.16;33.12;101097.63;3144581;28;19924;-72
2022/03/22 00:40:30;;;;;;;;;;;;;;;6.18;33.13;101107.94;3137772;28;20002;-72
2022/03/22 00:42:02;;;;;;;;;;;;;;;6.18;33.03;101105.34;3140615;28;19920;-72
2022/03/22 00:43:34;;;;;;;;;;;;;;;6.19;33.01;101094.16;3146332;28;19931;-72
2022/03/22 00:45:06;;;;;;;;;;;;;;;6.21;33.14;101097.56;3145534;28;19928;-72
2022/03/22 00:46:39;;;;;;;;;;;;;;;6.22;33.02;101096.72;3139289;28;19925;-72
2022/03/22 00:48:13;;;;;;;;;;;;;;;6.24;32.91;101097.53;3139181;28;19936;-72
2022/03/22 00:49:45;;;;;;;;;;;;;;;6.25;32.88;101094.09;3150566;28;20440;-73
2022/03/22 00:51:16;;;;;;;;;;;;;;;6.26;33.10;101099.25;3146720;28;20010;-72
2022/03/22 00:52:48;;;;;;;;;;;;;;;6.28;32.97;101091.50;3146024;28;19978;-71
2022/03/22 00:54:20;;;;;;;;;;;;;;;6.28;32.87;101097.53;3143008;28;20409;-72
2022/03/22 00:55:53;;;;;;;;;;;;;;;6.30;32.80;101089.75;3143263;28;20416;-72
2022/03/22 00:57:24;;;;;;;;;;;;;;;6.31;32.74;101086.31;3145039;28;19936;-73
2022/03/22 01:00:41;;;;;;;;;;;;;;;6.33;32.80;101089.72;3144497;28;20392;-72
2022/03/22 01:02:13;;;;;;;;;;;;;;;6.26;32.79;101073.38;3145159;28;20007;-72
2022/03/22 01:03:45;;;;;;;;;;;;;;;6.32;32.69;101091.44;3142530;28;20374;-72
2022/03/22 01:05:19;;;;;;;;;;;;;;;6.33;32.74;101084.53;3145471;28;19921;-72
2022/03/22 01:06:51;;;;;;;;;;;;;;;6.35;32.75;101087.97;3142686;28;19924;-71
2022/03/22 01:08:23;;;;;;;;;;;;;;;6.35;32.74;101080.22;3136464;28;20254;-71
2022/03/22 01:09:54;;;;;;;;;;;;;;;6.35;32.67;101078.50;3138678;28;19925;-72
2022/03/22 01:11:25;;;;;;;;;;;;;;;6.24;32.72;101051.88;3134714;28;19924;-72
2022/03/22 01:12:57;;;;;;;;;;;;;;;6.35;32.75;101073.31;3145664;28;19920;-73
2022/03/22 01:14:29;;;;;;;;;;;;;;;6.36;32.68;101074.19;3144743;28;20019;-72
2022/03/22 01:16:00;;;;;;;;;;;;;;;6.38;32.77;101067.25;3145264;28;19928;-72
2022/03/22 01:17:33;;;;;;;;;;;;;;;6.37;32.61;101058.66;3145809;28;19921;-72
2022/03/22 01:19:05;;;;;;;;;;;;;;;6.42;32.72;101062.91;3145150;28;19967;-71
2022/03/22 01:20:37;;;;;;;;;;;;;;;6.42;32.70;101057.75;3145549;28;19931;-71
2022/03/22 01:22:10;;;;;;;;;;;;;;;6.44;32.62;101056.00;3141436;28;19943;-71
2022/03/22 01:23:41;;;;;;;;;;;;;;;6.43;32.65;101057.75;3141562;28;20019;-72
2022/03/22 01:25:14;;;;;;;;;;;;;;;6.46;32.56;101056.88;3134081;28;19957;-72
2022/03/22 01:26:46;;;;;;;;;;;;;;;6.47;32.60;101058.56;3145597;28;19938;-72
2022/03/22 01:28:18;;;;;;;;;;;;;;;6.46;32.54;101060.31;3136992;28;20407;-72
2022/03/22 01:29:50;;;;;;;;;;;;;;;6.45;32.61;101052.53;3147563;28;20042;-72
2022/03/22 01:31:25;;;;;;;;;;;;;;;6.45;32.53;101053.44;3145082;28;19928;-72
2022/03/22 01:32:58;;;;;;;;;;;;;;;6.47;32.60;101050.81;3144196;28;19921;-73
2022/03/22 01:34:30;;;;;;;;;;;;;;;6.47;32.55;101043.91;3143959;28;19924;-72
2022/03/22 01:36:02;;;;;;;;;;;;;;;6.49;32.56;101049.06;3144864;28;19920;-72
2022/03/22 01:37:33;;;;;;;;;;;;;;;6.49;32.41;101044.75;3145685;28;20416;-73
2022/03/22 01:39:05;;;;;;;;;;;;;;;6.32;32.40;101010.41;3145045;28;19924;-72
2022/03/22 01:40:37;;;;;;;;;;;;;;;6.50;32.47;101036.09;3145500;28;20355;-72
2022/03/22 01:42:08;;;;;;;;;;;;;;;6.53;32.52;101040.41;3137816;28;19920;-73
2022/03/22 01:43:40;;;;;;;;;;;;;;;6.53;32.43;101036.09;3145050;28;19977;-72
2022/03/22 01:45:11;;;;;;;;;;;;;;;6.54;32.46;101040.41;3148982;28;19925;-73
2022/03/22 01:46:45;;;;;;;;;;;;;;;6.54;32.47;101037.81;3138129;28;19970;-72
2022/03/22 01:48:18;;;;;;;;;;;;;;;6.55;32.42;101036.09;3145665;28;19977;-72
2022/03/22 01:49:50;;;;;;;;;;;;;;;6.57;32.43;101036.94;3144478;28;20475;-72
2022/03/22 01:51:22;;;;;;;;;;;;;;;6.56;32.32;101036.06;3145633;28;19928;-71
2022/03/22 01:52:55;;;;;;;;;;;;;;;6.57;32.32;101034.34;3144756;28;20313;-71
2022/03/22 01:54:26;;;;;;;;;;;;;;;6.57;32.28;101032.63;3147435;28;20421;-72
2022/03/22 01:55:58;;;;;;;;;;;;;;;6.59;32.30;101036.03;3139992;28;19924;-71
2022/03/22 01:57:33;;;;;;;;;;;;;;;6.59;32.24;101033.44;3145310;28;19989;-72
2022/03/22 01:59:05;;;;;;;;;;;;;;;6.60;32.36;101027.41;3137994;28;20384;-72
2022/03/22 02:00:36;;;;;;;;;;;;;;;6.63;32.35;101030.84;3140491;28;19970;-72
2022/03/22 02:05:56;;;;;;;;;;;;;;;6.64;32.14;101028.22;3134759;28;19920;-71
2022/03/22 02:07:28;;;;;;;;;;;;;;;6.68;32.17;101029.06;3141654;28;19920;-72
2022/03/22 02:09:00;;;;;;;;;;;;;;;6.52;31.99;100992.13;3144954;28;20423;-72
2022/03/22 02:10:31;;;;;;;;;;;;;;;6.70;32.11;101020.41;3144441;28;20309;-72
2022/03/22 02:12:03;;;;;;;;;;;;;;;6.70;32.07;101023.00;3145251;28;19921;-72
2022/03/22 02:13:35;;;;;;;;;;;;;;;6.70;32.02;101022.16;3144609;28;20441;-71
2022/03/22 02:15:07;;;;;;;;;;;;;;;6.71;32.05;101021.25;3155054;28;19926;-72
2022/03/22 02:16:39;;;;;;;;;;;;;;;6.71;32.09;101016.94;3134045;28;19927;-72
2022/03/22 02:18:11;;;;;;;;;;;;;;;6.72;32.01;101017.81;3143719;28;19924;-71
2022/03/22 02:19:44;;;;;;;;;;;;;;;6.74;32.09;101023.81;3144543;28;19920;-71
2022/03/22 02:21:16;;;;;;;;;;;;;;;6.73;32.07;101028.13;3145438;28;19924;-71
2022/03/22 02:22:52;;;;;;;;;;;;;;;6.75;32.08;101020.38;3144528;28;19975;-71
2022/03/22 02:24:24;;;;;;;;;;;;;;;6.77;32.02;101023.78;3144906;28;20455;-71
2022/03/22 02:25:56;;;;;;;;;;;;;;;6.77;32.02;101013.44;3144246;28;20007;-71
2022/03/22 02:27:29;;;;;;;;;;;;;;;6.78;32.04;101010.00;3144627;28;19920;-71
2022/03/22 02:29:01;;;;;;;;;;;;;;;6.79;32.06;101009.97;3145107;28;20010;-72
2022/03/22 02:30:32;;;;;;;;;;;;;;;6.81;31.99;101015.13;3144912;28;19920;-72
2022/03/22 02:32:04;;;;;;;;;;;;;;;6.81;32.05;101017.72;3145310;28;19921;-71
2022/03/22 02:33:35;;;;;;;;;;;;;;;6.82;32.06;101014.25;3144412;28;20030;-72
2022/03/22 02:35:08;;;;;;;;;;;;;;;6.83;31.99;101015.94;3147847;28;19920;-72
2022/03/22 02:36:39;;;;;;;;;;;;;;;6.83;32.15;101008.19;3144256;28;19921;-70
2022/03/22 02:38:12;;;;;;;;;;;;;;;6.86;32.00;101015.06;3145004;28;20327;-72
2022/03/22 02:39:45;;;;;;;;;;;;;;;6.85;32.01;101011.63;3144719;28;19927;-72
2022/03/22 02:41:17;;;;;;;;;;;;;;;6.84;32.02;101010.78;3144588;28;20407;-72
2022/03/22 02:42:50;;;;;;;;;;;;;;;6.86;32.14;101005.56;3144068;28;19920;-73
2022/03/22 02:44:22;;;;;;;;;;;;;;;6.86;32.01;100999.53;3139412;28;19921;-72
2022/03/22 02:45:54;;;;;;;;;;;;;;;6.86;32.03;100996.94;3144406;28;19921;-72
2022/03/22 02:47:25;;;;;;;;;;;;;;;6.86;31.94;100997.78;3137805;28;20088;-73
2022/03/22 02:48:57;;;;;;;;;;;;;;;6.87;32.01;100999.53;3144445;28;19919;-72
2022/03/22 02:50:29;;;;;;;;;;;;;;;6.87;32.01;100999.53;3136343;28;20439;-72
2022/03/22 02:52:00;;;;;;;;;;;;;;;6.87;31.96;101001.28;3145190;28;19977;-72
2022/03/22 02:53:32;;;;;;;;;;;;;;;6.87;32.08;100996.94;3144536;28;19978;-73
2022/03/22 02:55:06;;;;;;;;;;;;;;;6.87;31.98;100989.16;3138722;28;20224;-72
2022/03/22 02:56:38;;;;;;;;;;;;;;;6.88;32.08;100993.47;3143830;28;19920;-72
2022/03/22 02:58:09;;;;;;;;;;;;;;;6.88;32.07;100990.88;3144376;28;19946;-72
2022/03/22 02:59:41;;;;;;;;;;;;;;;6.89;32.04;100987.44;3144737;28;19974;-72
2022/03/22 03:01:13;;;;;;;;;;;;;;;6.90;32.05;100991.72;3143827;28;20317;-72
2022/03/22 03:02:44;;;;;;;;;;;;;;;6.88;32.04;100996.06;3138477;28;19931;-72
2022/03/22 03:04:16;;;;;;;;;;;;;;;6.88;32.06;100993.47;3136120;28;19994;-72
2022/03/22 03:05:48;;;;;;;;;;;;;;;6.90;31.96;100998.66;3140703;28;19982;-72
2022/03/22 03:07:20;;;;;;;;;;;;;;;6.88;32.16;100996.06;3141846;28;19932;-72
2022/03/22 03:08:51;;;;;;;;;;;;;;;6.89;32.07;101000.38;3147346;28;19923;-72
2022/03/22 03:10:24;;;;;;;;;;;;;;;6.88;32.11;100990.88;3146930;28;20015;-71
2022/03/22 03:11:55;;;;;;;;;;;;;;;6.90;32.03;100998.66;3147469;28;19920;-71
2022/03/22 03:14:38;;;;;;;;;;;;;;;6.89;32.08;101002.97;3143393;28;19960;-72
2022/03/22 03:15:18;;;;;;;;;;;;;;;6.91;31.98;101000.34;3145926;28;19920;-72
2022/03/22 03:16:48;;;;;;;;;;;;;;;6.91;32.03;100997.75;3147363;28;20079;-72
2022/03/22 03:18:20;;;;;;;;;;;;;;;6.90;32.01;100994.31;3146372;28;20010;-71
2022/03/22 03:19:52;;;;;;;;;;;;;;;6.91;32.08;100998.59;3147028;28;20459;-72
2022/03/22 03:21:23;;;;;;;;;;;;;;;6.92;32.15;100992.56;3146533;28;20378;-72
2022/03/22 03:22:56;;;;;;;;;;;;;;;6.93;32.03;100983.06;3146852;28;19970;-72
2022/03/22 03:24:26;;;;;;;;;;;;;;;6.94;32.12;100987.38;3146412;28;20231;-72
2022/03/22 03:25:59;;;;;;;;;;;;;;;6.94;32.05;100988.22;3150494;28;20072;-72
2022/03/22 03:27:31;;;;;;;;;;;;;;;6.94;32.08;100983.03;3144762;28;19930;-72
2022/03/22 03:29:02;;;;;;;;;;;;;;;6.95;32.06;100995.13;3146841;28;19921;-72
2022/03/22 03:30:34;;;;;;;;;;;;;;;6.96;32.14;100989.06;3146411;28;19977;-72
2022/03/22 03:32:06;;;;;;;;;;;;;;;6.94;32.15;100993.41;3146314;28;19924;-72
2022/03/22 03:33:37;;;;;;;;;;;;;;;6.95;32.04;100995.13;3147397;28;19920;-72
2022/03/22 03:35:09;;;;;;;;;;;;;;;6.94;32.16;100996.00;3146562;28;19924;-72
2022/03/22 03:36:40;;;;;;;;;;;;;;;6.95;32.03;100992.53;3145653;28;20313;-72
2022/03/22 03:38:11;;;;;;;;;;;;;;;6.96;32.14;100990.81;3146969;28;20004;-72
2022/03/22 03:39:44;;;;;;;;;;;;;;;6.95;32.06;100983.88;3140494;28;19924;-72
2022/03/22 03:43:06;;;;;;;;;;;;;;;6.94;32.18;100977.84;3143003;28;20354;-73
2022/03/22 03:48:15;;;;;;;;;;;;;;;6.92;32.08;100965.78;3143290;28;19932;-73
2022/03/22 03:49:48;;;;;;;;;;;;;;;6.92;32.15;100966.69;3151378;28;19996;-73
2022/03/22 03:51:19;;;;;;;;;;;;;;;6.92;32.11;100974.44;3147273;28;19920;-73
2022/03/22 03:52:51;;;;;;;;;;;;;;;6.92;32.04;100966.69;3145967;28;19971;-73
2022/03/22 03:54:22;;;;;;;;;;;;;;;6.93;32.10;100963.22;3144204;28;20389;-72
2022/03/22 03:55:53;;;;;;;;;;;;;;;6.92;32.20;100961.50;3142646;28;19960;-73
2022/03/22 03:57:26;;;;;;;;;;;;;;;6.92;32.11;100958.91;3144147;28;19971;-73
2022/03/22 03:58:57;;;;;;;;;;;;;;;6.93;32.13;100963.22;3141538;28;20291;-72
2022/03/22 04:00:29;;;;;;;;;;;;;;;6.94;32.09;100964.91;3145907;28;19927;-73
2022/03/22 04:02:00;;;;;;;;;;;;;;;6.94;32.09;100970.09;3145927;28;19940;-73
2022/03/22 04:03:33;;;;;;;;;;;;;;;6.95;32.19;100964.06;3145999;28;20011;-73
2022/03/22 04:05:04;;;;;;;;;;;;;;;6.94;32.12;100975.28;3145681;28;19924;-73
2022/03/22 04:06:36;;;;;;;;;;;;;;;6.95;32.12;100987.38;3147038;28;20378;-73
2022/03/22 04:08:08;;;;;;;;;;;;;;;6.96;32.16;100991.66;3145725;28;20381;-72
2022/03/22 04:09:40;;;;;;;;;;;;;;;6.96;32.21;100983.88;3146623;28;20361;-72
2022/03/22 04:11:12;;;;;;;;;;;;;;;6.97;32.12;100970.06;3148795;28;19920;-72
2022/03/22 04:12:45;;;;;;;;;;;;;;;6.97;32.28;100959.69;3146699;28;19968;-72
2022/03/22 04:14:16;;;;;;;;;;;;;;;6.96;32.24;100970.09;3145236;28;19968;-72
2022/03/22 04:15:47;;;;;;;;;;;;;;;6.96;32.12;100978.72;3146113;28;19928;-71
2022/03/22 04:17:19;;;;;;;;;;;;;;;6.98;32.13;100976.97;3146267;28;19920;-71
2022/03/22 04:18:50;;;;;;;;;;;;;;;6.98;32.11;100966.59;3145952;28;19998;-71
2022/03/22 04:20:22;;;;;;;;;;;;;;;6.98;32.20;100969.19;3146608;28;19941;-72
2022/03/22 04:21:54;;;;;;;;;;;;;;;7.00;32.16;100976.94;3145752;28;19967;-71
2022/03/22 04:23:26;;;;;;;;;;;;;;;7.00;32.04;100970.00;3146579;28;19924;-72
2022/03/22 04:24:57;;;;;;;;;;;;;;;7.01;32.20;100970.88;3145939;28;19920;-72
2022/03/22 04:26:28;;;;;;;;;;;;;;;7.01;32.18;100966.56;3146355;28;20474;-72
2022/03/22 04:33:28;;;;;;;;;;;;;;;7.06;32.15;100974.28;3136838;28;20354;-72
2022/03/22 04:35:00;;;;;;;;;;;;;;;7.07;32.01;100966.50;3134408;28;19924;-72
2022/03/22 04:36:31;;;;;;;;;;;;;;;7.07;32.14;100971.69;3145150;28;19924;-72
2022/03/22 04:38:03;;;;;;;;;;;;;;;7.09;32.21;100973.38;3145460;28;19924;-73
2022/03/22 04:39:33;;;;;;;;;;;;;;;7.10;32.19;100975.09;3142240;28;20360;-71
2022/03/22 04:41:05;;;;;;;;;;;;;;;7.12;32.18;100975.94;3147961;28;20018;-71
2022/03/22 04:42:37;;;;;;;;;;;;;;;7.13;32.17;100968.16;3139374;28;19994;-71
2022/03/22 04:44:09;;;;;;;;;;;;;;;7.13;32.15;100969.88;3146205;28;19924;-71
2022/03/22 04:45:41;;;;;;;;;;;;;;;7.14;32.28;100975.03;3145664;28;19931;-71
2022/03/22 04:47:13;;;;;;;;;;;;;;;7.17;32.16;100966.38;3139779;28;19927;-71
2022/03/22 04:48:44;;;;;;;;;;;;;;;7.18;32.10;100966.34;3145434;28;19920;-72
2022/03/22 04:50:17;;;;;;;;;;;;;;;7.19;32.09;100965.50;3146029;28;20019;-72
2022/03/22 04:57:25;;;;;;;;;;;;;;;7.26;32.04;100959.34;3140824;28;20019;-72
2022/03/22 04:58:57;;;;;;;;;;;;;;;7.31;32.12;100969.66;3145107;28;19924;-72
2022/03/22 05:00:30;;;;;;;;;;;;;;;7.34;32.07;100961.84;3141546;28;19924;-72
2022/03/22 05:02:02;;;;;;;;;;;;;;;7.37;32.04;100976.50;3145332;28;19985;-72
2022/03/22 05:03:34;;;;;;;;;;;;;;;7.38;32.02;100968.69;3142681;28;19973;-73
2022/03/22 05:05:05;;;;;;;;;;;;;;;7.41;32.06;100971.22;3146029;28;19970;-73
2022/03/22 05:06:37;;;;;;;;;;;;;;;7.45;32.06;100964.25;3141306;28;20386;-73
2022/03/22 05:08:08;;;;;;;;;;;;;;;7.48;32.07;100972.00;3145498;28;20011;-73
2022/03/22 05:09:40;;;;;;;;;;;;;;;7.50;31.96;100971.09;3144288;28;19985;-73
2022/03/22 05:11:12;;;;;;;;;;;;;;;7.52;31.94;100961.59;3149463;28;19920;-73
2022/03/22 05:12:43;;;;;;;;;;;;;;;7.53;32.00;100955.50;3134826;28;20406;-73
2022/03/22 05:14:14;;;;;;;;;;;;;;;7.58;31.94;100970.16;3145690;28;19924;-73
2022/03/22 05:15:47;;;;;;;;;;;;;;;7.60;31.99;100958.00;3145360;28;19973;-73
2022/03/22 05:17:21;;;;;;;;;;;;;;;7.61;31.85;100952.81;3145523;28;19925;-73
2022/03/22 05:18:54;;;;;;;;;;;;;;;7.66;31.81;100951.03;3145056;28;19924;-72
2022/03/22 05:20:25;;;;;;;;;;;;;;;7.56;31.68;100926.09;3141926;28;19932;-72
2022/03/22 05:21:58;;;;;;;;;;;;;;;7.78;31.83;100955.16;3143010;28;20295;-72
2022/03/22 05:23:29;;;;;;;;;;;;;;;7.84;31.54;100951.59;3140896;28;19920;-71
2022/03/22 05:25:01;;;;;;;;;;;;;;;7.89;31.60;100944.63;3144904;28;20335;-73
2022/03/22 05:26:33;;;;;;;;;;;;;;;7.93;31.56;100944.56;3144847;28;19947;-73
2022/03/22 05:28:05;;;;;;;;;;;;;;;7.98;31.49;100939.28;3145674;28;20548;-72
2022/03/22 05:29:36;;;;;;;;;;;;;;;8.01;31.61;100938.38;3144746;28;19925;-73
2022/03/22 05:31:11;;;;;;;;;;;;;;;8.06;31.30;100944.34;3145522;28;19924;-73
2022/03/22 05:32:43;;;;;;;;;;;;;;;8.09;31.45;100932.19;3144641;28;19925;-73
2022/03/22 05:34:15;;;;;;;;;;;;;;;8.13;31.30;100938.16;3145453;28;19989;-72
2022/03/22 05:35:46;;;;;;;;;;;;;;;8.15;31.42;100945.03;3146708;28;19924;-73
2022/03/22 05:37:21;;;;;;;;;;;;;;;8.20;31.32;100942.38;3144689;28;19921;-72
2022/03/22 05:38:53;;;;;;;;;;;;;;;8.22;31.04;100935.41;3145231;28;20118;-72
2022/03/22 05:40:23;;;;;;;;;;;;;;;8.25;31.17;100932.75;3143775;28;19967;-72
2022/03/22 05:41:56;;;;;;;;;;;;;;;8.27;30.97;100943.97;3144938;28;19936;-72
2022/03/22 05:43:28;;;;;;;;;;;;;;;8.27;31.07;100938.78;3144472;28;19920;-72
2022/03/22 05:44:59;;;;;;;;;;;;;;;8.31;31.10;100947.38;3144792;28;20255;-71
2022/03/22 05:46:34;;;;;;;;;;;;;;;8.33;31.15;100949.06;3143558;28;19924;-72
2022/03/22 05:48:07;;;;;;;;;;;;;;;8.35;31.07;100947.31;3131183;28;19998;-72
2022/03/22 05:49:39;;;;;;;;;;;;;;;8.39;30.96;100942.94;3131139;28;19924;-72
2022/03/22 05:51:11;;;;;;;;;;;;;;;8.42;30.83;100930.75;3130908;28;19974;-72
2022/03/22 05:52:43;;;;;;;;;;;;;;;8.46;30.93;100939.38;3131324;28;20000;-72
2022/03/22 05:54:15;;;;;;;;;;;;;;;8.46;30.68;100931.59;3130693;28;19998;-72
2022/03/22 05:55:46;;;;;;;;;;;;;;;8.49;30.72;100933.22;3131092;28;19986;-72
2022/03/22 05:57:18;;;;;;;;;;;;;;;8.51;30.67;100934.94;3131143;28;20298;-73
2022/03/22 05:58:50;;;;;;;;;;;;;;;8.53;30.62;100932.31;3130058;28;19985;-72
2022/03/22 06:00:21;;;;;;;;;;;;;;;8.57;30.76;100932.22;3131066;28;19931;-72
2022/03/22 06:01:54;;;;;;;;;;;;;;;8.64;30.55;100932.97;3131647;28;19940;-74
2022/03/22 06:03:26;;;;;;;;;;;;;;;8.69;30.54;100931.13;3130439;28;19924;-72
2022/03/22 06:04:58;;;;;;;;;;;;;;;8.76;30.56;100929.28;3131107;28;19924;-72
2022/03/22 06:06:29;;;;;;;;;;;;;;;8.85;30.40;100940.34;3131247;28;19921;-72
2022/03/22 06:08:01;;;;;;;;;;;;;;;8.97;30.31;100928.84;3130604;28;19924;-71
2022/03/22 06:09:32;;;;;;;;;;;;;;;9.13;30.37;100934.56;3131129;28;19925;-72
2022/03/22 06:11:04;;;;;;;;;;;;;;;9.38;30.00;100931.47;3130854;28;19997;-72
2022/03/22 06:12:39;;;;;;;;;;;;;;;10.01;29.91;100936.88;3130428;28;19983;-71
2022/03/22 06:14:11;;;;;;;;;;;;;;;11.26;29.67;100936.16;3130457;28;19928;-70
2022/03/22 06:15:43;;;;;;;;;;;;;;;12.77;29.06;100929.47;3135225;28;19987;-69
2022/03/22 06:17:16;;;;;;;;;;;;;;;14.34;27.54;100930.25;3130951;28;19932;-74
2022/03/22 06:18:48;;;;;;;;;;;;;;;15.83;26.35;100928.78;3130357;28;19928;-73
2022/03/22 06:20:21;;;;;;;;;;;;;;;17.21;25.46;100926.88;3131612;28;19925;-74
2022/03/22 06:21:53;;;;;;;;;;;;;;;18.52;24.37;100920.28;3133317;28;19925;-70
2022/03/22 06:23:28;;;;;;;;;;;;;;;19.68;23.34;100920.91;3132484;28;19924;-77
2022/03/22 06:24:59;;;;;;;;;;;;;;;20.82;21.86;100918.53;3132584;28;19971;-74
2022/03/22 06:26:31;;;;;;;;;;;;;;;21.81;21.36;100913.16;3137620;28;19928;-74
2022/03/22 06:30:03;;;;;;;;;;;;;;;23.89;19.55;100908.34;3098357;28;19952;-76
2022/03/22 06:31:35;;;;;;;;;;;;;;;24.70;19.07;100915.59;3123736;28;19932;-75
2022/03/22 06:33:12;;;;;;;;;;;;;;;25.46;18.72;100907.13;3132030;28;19999;-78
2022/03/22 06:34:44;;;;;;;;;;;;;;;26.11;17.14;100899.41;3132428;28;19924;-78
2022/03/22 06:36:16;;;;;;;;;;;;;;;26.59;16.87;100894.97;3135103;28;19928;-77
2022/03/22 06:38:03;;;;;;;;;;;;;;;27.08;16.71;100908.94;3136802;28;19927;-78
2022/03/22 06:39:34;;;;;;;;;;;;;;;27.64;16.12;100903.38;3132985;28;19982;-75
2022/03/22 06:41:06;;;;;;;;;;;;;;;28.16;15.80;100904.47;3134056;28;19931;-71
2022/03/22 06:42:37;;;;;;;;;;;;;;;28.68;15.19;100902.66;3134497;28;19932;-71
2022/03/22 06:44:10;;;;;;;;;;;;;;;29.14;14.70;100892.47;3136977;28;19924;-72
2022/03/22 06:45:41;;;;;;;;;;;;;;;29.61;14.46;100899.94;3128600;28;19931;-72
2022/03/22 06:47:13;;;;;;;;;;;;;;;29.99;14.29;100897.59;3139278;28;20403;-72
2022/03/22 06:48:46;;;;;;;;;;;;;;;30.30;13.70;100894.25;3145892;28;20412;-70
2022/03/22 06:50:19;;;;;;;;;;;;;;;30.43;13.45;100891.84;3146384;28;19920;-71
2022/03/22 06:51:50;;;;;;;;;;;;;;;30.77;12.94;100890.72;3143220;28;19974;-71
2022/03/22 06:53:22;;;;;;;;;;;;;;;31.07;13.07;100881.03;3146608;28;19925;-70
2022/03/22 06:54:54;;;;;;;;;;;;;;;31.35;12.54;100888.59;3144299;28;19926;-71
2022/03/22 06:56:25;;;;;;;;;;;;;;;31.65;12.51;100893.13;3146728;28;19927;-71
2022/03/22 06:57:57;;;;;;;;;;;;;;;31.97;12.47;100888.47;3145609;28;20011;-72
2022/03/22 06:59:29;;;;;;;;;;;;;;;32.31;12.11;100892.53;3142619;28;19920;-71
2022/03/22 07:01:00;;;;;;;;;;;;;;;32.48;11.66;100885.97;3139086;28;19920;-72
2022/03/22 07:02:32;;;;;;;;;;;;;;;32.56;11.76;100896.63;3145726;28;19924;-72
2022/03/22 07:04:05;;;;;;;;;;;;;;;32.67;11.25;100895.34;3150935;28;19920;-71
2022/03/22 07:05:36;;;;;;;;;;;;;;;32.84;11.44;100886.03;3149615;28;19973;-72
2022/03/22 07:07:08;;;;;;;;;;;;;;;32.92;11.27;100881.53;3145901;28;19925;-72
2022/03/22 07:08:40;;;;;;;;;;;;;;;33.02;11.00;100880.25;3146750;28;19921;-71
2022/03/22 07:10:13;;;;;;;;;;;;;;;32.93;10.90;100883.22;3146770;28;20355;-70
2022/03/22 07:11:49;;;;;;;;;;;;;;;32.99;11.03;100880.63;3146946;28;20026;-80
2022/03/22 07:13:32;;;;;;;;;;;;;;;32.98;10.84;100880.78;3146098;28;20066;-80
2022/03/22 07:19:29;;;;;;;;;;;;;;;32.53;10.90;100883.53;3142910;28;19935;-80
2022/03/22 07:21:13;;;;;;;;;;;;;;;32.39;11.24;100890.59;3149917;28;19924;-79
2022/03/22 07:24:50;;;;;;;;;;;;;;;32.21;11.16;100886.56;3146347;28;19920;-79
2022/03/22 07:27:00;;;;;;;;;;;;;;;32.02;10.98;100886.06;3146252;28;19921;-79
2022/03/22 07:28:35;;;;;;;;;;;;;;;31.80;11.23;100884.22;3123767;28;19931;-77
2022/03/22 07:30:20;;;;;;;;;;;;;;;31.40;11.17;100865.53;3146091;28;20601;-79
2022/03/22 07:31:52;;;;;;;;;;;;;;;31.19;11.43;100871.53;3145425;28;20381;-80
2022/03/22 07:33:27;;;;;;;;;;;;;;;30.91;11.56;100881.97;3144570;28;19982;-76
2022/03/22 07:35:00;;;;;;;;;;;;;;;30.65;11.58;100876.00;3145691;28;20283;-73
2022/03/22 07:36:32;;;;;;;;;;;;;;;30.34;11.53;100882.97;3144924;28;19924;-74
2022/03/22 07:38:04;;;;;;;;;;;;;;;30.03;12.06;100876.63;3145036;28;19978;-77
2022/03/22 07:39:37;;;;;;;;;;;;;;;29.75;12.10;100879.66;3145098;28;20381;-77
2022/03/22 07:41:10;;;;;;;;;;;;;;;29.51;12.36;100877.75;3145841;28;19928;-76
2022/03/22 07:42:54;;;;;;;;;;;;;;;;;;;;;
2022/03/22 07:44:27;;;;;;;;;;;;;;;28.91;12.39;100873.44;3144483;28;19924;-76
2022/03/22 07:45:59;;;;;;;;;;;;;;;28.63;12.57;100872.81;3145034;28;19943;-75
2022/03/22 07:47:31;;;;;;;;;;;;;;;28.35;12.93;100864.94;3145318;28;20009;-71
2022/03/22 07:54:28;;;;;;;;;;;;;;;26.77;13.11;100847.78;3135497;28;20015;-73
2022/03/22 07:56:00;;;;;;;;;;;;;;;26.37;13.72;100854.25;3136443;28;19978;-74
2022/03/22 07:57:32;;;;;;;;;;;;;;;26.03;13.60;100851.25;3136945;28;19930;-74
2022/03/22 07:59:04;;;;;;;;;;;;;;;25.67;13.56;100842.13;3136053;28;20290;-75
2022/03/22 08:00:37;;;;;;;;;;;;;;;25.38;13.73;100851.84;3135979;28;19928;-74
2022/03/22 08:02:09;;;;;;;;;;;;;;;25.09;14.24;100856.25;3135319;28;20055;-68
2022/03/22 08:03:44;;;;;;;;;;;;;;;24.78;14.25;100845.66;3134890;28;20472;-72
2022/03/22 08:05:14;;;;;;;;;;;;;;;24.52;14.53;100854.13;3135159;28;19934;-73
2022/03/22 08:06:46;;;;;;;;;;;;;;;24.27;14.45;100858.03;3136033;28;20406;-72
2022/03/22 08:08:19;;;;;;;;;;;;;;;24.03;14.58;100853.00;3136012;28;19931;-73
2022/03/22 08:09:51;;;;;;;;;;;;;;;23.77;14.70;100854.34;3134898;28;19946;-73
2022/03/22 08:11:24;;;;;;;;;;;;;;;23.55;14.88;100855.28;3136012;28;20379;-73
2022/03/22 08:12:55;;;;;;;;;;;;;;;23.31;15.28;100852.84;3134197;28;20407;-72
2022/03/22 08:14:27;;;;;;;;;;;;;;;23.09;15.20;100856.38;3138191;28;19924;-73
2022/03/22 08:15:59;;;;;;;;;;;;;;;22.89;15.39;100849.97;3136584;28;19936;-73
2022/03/22 08:17:31;;;;;;;;;;;;;;;22.68;15.52;100844.56;3136418;28;19950;-73
2022/03/22 08:19:04;;;;;;;;;;;;;;;22.48;15.71;100841.69;3137135;28;20407;-73
2022/03/22 08:20:36;;;;;;;;;;;;;;;22.30;15.87;100839.63;3135110;28;20399;-73
2022/03/22 08:22:08;;;;;;;;;;;;;;;22.14;15.92;100838.13;3135882;28;20011;-73
2022/03/22 08:23:42;;;;;;;;;;;;;;;21.98;16.12;100838.47;3137485;28;20647;-74
2022/03/22 08:25:13;;;;;;;;;;;;;;;21.81;16.24;100831.81;3131022;28;19970;-72
2022/03/22 08:26:45;;;;;;;;;;;;;;;21.68;16.47;100827.53;3137464;28;20369;-73
2022/03/22 08:28:17;;;;;;;;;;;;;;;21.56;16.41;100831.94;3137120;28;20019;-73
2022/03/22 08:29:51;;;;;;;;;;;;;;;21.40;16.52;100823.47;3136551;28;19942;-71
2022/03/22 08:31:22;;;;;;;;;;;;;;;21.20;16.62;100819.59;3136091;28;20011;-73
2022/03/22 08:32:55;;;;;;;;;;;;;;;20.90;16.85;100784.66;3132305;28;19924;-72
2022/03/22 08:34:27;;;;;;;;;;;;;;;20.94;17.05;100810.91;3137557;28;20400;-72
2022/03/22 08:35:59;;;;;;;;;;;;;;;20.83;17.23;100819.63;3136658;28;20240;-72